LIPH Airport Information

Runway Information
Runway 07 Length 7941 ft width 144 ft
Elevation 56 ft Threshold 254 ft Heading 69
Runway 25 Length 7941 ft Width 144 ft
Elevation 51 ft Threshold 389 ft Heading 249
Airport Frequencies
Type APP Name APP Frequency 120.4 MHZ
Type APP Name APP Frequency 36.23 MHZ
Type GND Name GND Frequency 27.917 MHZ
Type INFO Name PADOVA INF Frequency 124.15 MHZ
Type TWR Name TWR Frequency 118.7 MHZ
Airport Navaids
Type NDB Name Treviso Frequency 302 KHZ
Airport Weather Information & NOTAM
ADDS - METARS form results

(1208 UTC 28 September 2022)
Data provider http://aviationweather.gov/metar/data/
 
METAR text: LIPH 281150Z 08005KT 030V110 CAVOK 18/13 Q1000
Conditions at: LIPH (TREVISO(CIV/IT-A, IT) observed 1150 UTC 28 September 2022
Temperature: 18.0°C (64°F)
Dewpoint: 13.0°C (55°F) [RH = 73%]
Pressure (altimeter): 29.53 inches Hg (1000.0 mb)
Winds: from the E (80 degrees) at 6 MPH (5 knots; 2.6 m/s)
Visibility: 6 or more miles (10+ km)
Ceiling: ceiling and visibility are OK
Clouds: unknown
Weather: no significant weather observed at this time

METAR text: LIPH 281120Z 06005KT 040V100 CAVOK 18/12 Q1001
Conditions at: LIPH (TREVISO(CIV/IT-A, IT) observed 1120 UTC 28 September 2022
Temperature: 18.0°C (64°F)
Dewpoint: 12.0°C (54°F) [RH = 68%]
Pressure (altimeter): 29.56 inches Hg (1001.0 mb)
Winds: from the ENE (60 degrees) at 6 MPH (5 knots; 2.6 m/s)
Visibility: 6 or more miles (10+ km)
Ceiling: ceiling and visibility are OK
Clouds: unknown
Weather: no significant weather observed at this time

Forecast for: LIPH (TREVISO(CIV/IT-A, IT)
Text: TAF LIPH 281100Z 2812/2912 04006KT 9999 SCT030 SCT060
Forecast period: 1200 UTC 28 September 2022 to 1200 UTC 29 September 2022
Forecast type: FROM: standard forecast or significant change
Winds: from the NE (40 degrees) at 7 MPH (6 knots; 3.1 m/s)
Visibility: 6 or more miles (10+ km)
Ceiling: at least 12,000 feet AGL
Clouds: scattered clouds at 3000 feet AGL
scattered clouds at 6000 feet AGL
Weather: no significant weather forecast for this period
Text: TEMPO 2817/2824 SHRA
Forecast period: 1700 UTC 28 September 2022 to 0000 UTC 29 September 2022
Forecast type: TEMPORARY: The following changes expected for less than half the time period
Visibility: missing
Ceiling: unknown
Clouds: missing
Weather: SHRA  (rain showers)